createdAt,value
2018-10-07T00:01:52.600Z,100251.50
2018-10-07T00:04:23.076Z,100259.66
2018-10-07T00:06:53.535Z,100259.21
2018-10-07T00:09:23.925Z,100259.65
2018-10-07T00:11:54.615Z,100268.66
2018-10-07T00:14:25.003Z,100259.65
2018-10-07T00:16:55.460Z,100276.27
2018-10-07T00:19:25.842Z,100281.20
2018-10-07T00:21:56.917Z,100291.14
2018-10-07T00:24:27.305Z,100286.30
2018-10-07T00:26:57.825Z,100289.39
2018-10-07T00:29:28.328Z,100296.52
2018-10-07T00:32:03.766Z,100293.79
2018-10-07T00:34:34.282Z,100292.59
2018-10-07T00:37:04.648Z,100299.16
2018-10-07T00:39:34.926Z,100304.36
2018-10-07T00:42:05.288Z,100306.32
2018-10-07T00:44:35.949Z,100313.76
2018-10-07T00:47:06.576Z,100312.73
2018-10-07T00:49:37.121Z,100322.61
2018-10-07T00:52:07.716Z,100323.80
2018-10-07T00:54:38.086Z,100324.67
2018-10-07T00:57:08.504Z,100330.32
2018-10-07T00:59:38.805Z,100331.56
2018-10-07T01:02:09.337Z,100333.79
2018-10-07T01:04:39.758Z,100339.54
2018-10-07T01:07:10.339Z,100336.60
2018-10-07T01:09:40.724Z,100338.66
2018-10-07T01:12:11.117Z,100339.31
2018-10-07T01:14:41.553Z,100344.28
2018-10-07T01:17:13.884Z,100341.13
2018-10-07T01:19:44.384Z,100344.66
2018-10-07T01:22:14.743Z,100341.41
2018-10-07T01:24:45.144Z,100335.96
2018-10-07T01:27:15.604Z,100338.29
2018-10-07T01:29:46.003Z,100338.46
2018-10-07T01:32:16.465Z,100339.59
2018-10-07T01:34:47.070Z,100346.41
2018-10-07T01:37:17.718Z,100356.54
2018-10-07T01:39:48.266Z,100361.19
2018-10-07T01:42:18.807Z,100369.85
2018-10-07T01:44:49.517Z,100365.30
2018-10-07T01:47:19.732Z,100374.88
2018-10-07T01:49:50.420Z,100385.39
2018-10-07T01:52:21.592Z,100395.91
2018-10-07T01:54:51.818Z,100400.35
2018-10-07T01:57:22.282Z,100404.83
2018-10-07T01:59:52.720Z,100407.23
2018-10-07T02:02:23.393Z,100406.37
2018-10-07T02:04:53.868Z,100404.63
2018-10-07T02:07:24.404Z,100411.52
2018-10-07T02:09:54.642Z,100412.82
2018-10-07T02:12:25.178Z,100418.09
2018-10-07T02:14:55.595Z,100425.73
2018-10-07T02:17:26.072Z,100431.83
2018-10-07T02:19:56.560Z,100436.87
2018-10-07T02:22:26.903Z,100441.80
2018-10-07T02:24:57.293Z,100446.16
2018-10-07T02:27:27.829Z,100451.25
2018-10-07T02:29:58.181Z,100446.58
2018-10-07T02:32:28.508Z,100447.58
2018-10-07T02:34:58.932Z,100450.56
2018-10-07T02:37:29.308Z,100451.56
2018-10-07T02:39:59.731Z,100458.73
2018-10-07T02:42:30.172Z,100459.08
2018-10-07T02:45:00.691Z,100458.88
2018-10-07T02:47:31.886Z,100457.19
2018-10-07T02:50:06.375Z,100457.26
2018-10-07T02:52:42.630Z,100454.92
2018-10-07T02:55:13.133Z,100471.21
2018-10-07T02:57:44.204Z,100475.50
2018-10-07T03:00:14.734Z,100477.01
2018-10-07T03:02:45.295Z,100485.66
2018-10-07T03:05:15.739Z,100486.44
2018-10-07T03:07:46.610Z,100492.89
2018-10-07T03:10:17.708Z,100496.48
2018-10-07T03:12:48.106Z,100510.83
2018-10-07T03:15:18.544Z,100511.95
2018-10-07T03:17:49.109Z,100518.44
2018-10-07T03:20:19.464Z,100521.31
2018-10-07T03:22:49.847Z,100519.19
2018-10-07T03:25:20.140Z,100521.70
2018-10-07T03:27:50.711Z,100519.30
2018-10-07T03:30:21.216Z,100516.45
2018-10-07T03:32:51.672Z,100525.29
2018-10-07T03:35:22.172Z,100526.05
2018-10-07T03:37:52.524Z,100526.98
2018-10-07T03:40:23.031Z,100525.47
2018-10-07T03:42:53.312Z,100532.30
2018-10-07T03:45:23.694Z,100551.03
2018-10-07T03:47:53.944Z,100551.20
2018-10-07T03:50:24.295Z,100555.87
2018-10-07T03:52:54.783Z,100557.89
2018-10-07T03:55:25.116Z,100570.76
2018-10-07T03:57:55.544Z,100571.69
2018-10-07T04:00:26.981Z,100582.77
2018-10-07T04:02:57.561Z,100590.97
2018-10-07T04:05:28.059Z,100601.40
2018-10-07T04:07:58.520Z,100608.56
2018-10-07T04:10:28.790Z,100616.39
2018-10-07T04:12:59.266Z,100624.05
2018-10-07T04:15:29.588Z,100634.69
2018-10-07T04:18:00.055Z,100646.86
2018-10-07T04:20:30.652Z,100647.17
2018-10-07T04:23:00.997Z,100651.85
2018-10-07T04:25:31.369Z,100656.38
2018-10-07T04:28:01.745Z,100646.30
2018-10-07T04:30:32.060Z,100667.29
2018-10-07T04:33:02.416Z,100671.30
2018-10-07T04:35:32.793Z,100670.64
2018-10-07T04:38:03.186Z,100666.05
2018-10-07T04:40:34.159Z,100678.99
2018-10-07T04:43:04.858Z,100685.81
2018-10-07T04:45:35.353Z,100679.52
2018-10-07T04:48:05.604Z,100691.02
2018-10-07T04:50:35.990Z,100708.78
2018-10-07T04:53:06.657Z,100706.70
2018-10-07T04:55:40.734Z,100716.44
2018-10-07T04:58:11.333Z,100711.88
2018-10-07T05:00:41.702Z,100722.16
2018-10-07T05:03:12.191Z,100724.07
2018-10-07T05:05:42.900Z,100726.31
2018-10-07T05:08:13.577Z,100732.90
2018-10-07T05:10:49.866Z,100736.44
2018-10-07T05:13:42.657Z,100749.59
2018-10-07T05:16:14.336Z,100753.10
2018-10-07T05:18:45.790Z,100755.62
2018-10-07T05:21:16.180Z,100758.22
2018-10-07T05:23:46.808Z,100757.80
2018-10-07T05:26:17.240Z,100766.31
2018-10-07T05:28:47.801Z,100773.66
2018-10-07T05:31:18.496Z,100786.95
2018-10-07T05:33:48.988Z,100795.42
2018-10-07T05:36:19.580Z,100785.56
2018-10-07T05:38:50.319Z,100806.50
2018-10-07T05:41:20.817Z,100818.53
2018-10-07T05:43:51.104Z,100829.59
2018-10-07T05:46:21.504Z,100839.88
2018-10-07T05:48:51.995Z,100844.59
2018-10-07T05:51:22.481Z,100852.86
2018-10-07T05:53:52.973Z,100865.52
2018-10-07T05:56:23.540Z,100875.14
2018-10-07T05:58:56.697Z,100879.62
2018-10-07T06:01:46.320Z,100877.59
2018-10-07T06:04:35.080Z,100885.69
2018-10-07T06:07:05.804Z,100907.33
2018-10-07T06:09:37.358Z,100906.72
2018-10-07T06:12:08.094Z,100906.22
2018-10-07T06:14:55.115Z,100909.11
2018-10-07T06:17:25.525Z,100922.00
2018-10-07T06:19:56.071Z,100922.91
2018-10-07T06:22:29.264Z,100931.28
2018-10-07T06:24:59.618Z,100944.73
2018-10-07T06:27:30.208Z,100949.55
2018-10-07T06:30:00.977Z,100956.73
2018-10-07T06:32:31.411Z,100961.91
2018-10-07T06:35:02.040Z,100969.63
2018-10-07T06:37:32.669Z,100975.48
2018-10-07T06:40:03.127Z,100977.52
2018-10-07T06:42:33.690Z,100987.51
2018-10-07T06:45:04.388Z,100993.27
2018-10-07T06:47:35.106Z,101003.98
2018-10-07T06:50:05.940Z,101005.73
2018-10-07T06:52:36.347Z,101006.17
2018-10-07T06:55:06.845Z,101012.02
2018-10-07T06:57:37.220Z,101019.81
2018-10-07T07:00:08.770Z,101028.39
2018-10-07T07:02:39.159Z,101037.33
2018-10-07T07:05:09.569Z,101047.86
2018-10-07T07:07:40.736Z,101057.02
2018-10-07T07:10:11.973Z,101065.85
2018-10-07T07:12:42.432Z,101060.91
2018-10-07T07:15:12.915Z,101066.61
2018-10-07T07:17:43.339Z,101076.95
2018-10-07T07:20:13.619Z,101075.91
2018-10-07T07:22:43.856Z,101083.91
2018-10-07T07:25:18.239Z,101088.25
2018-10-07T07:27:48.519Z,101090.45
2018-10-07T07:30:18.934Z,101096.91
2018-10-07T07:32:49.414Z,101097.16
2018-10-07T07:35:19.840Z,101095.98
2018-10-07T07:37:50.088Z,101100.77
2018-10-07T07:40:20.589Z,101111.02
2018-10-07T07:42:50.976Z,101115.51
2018-10-07T07:45:21.338Z,101121.73
2018-10-07T07:47:51.628Z,101129.11
2018-10-07T07:50:22.022Z,101133.66
2018-10-07T07:52:52.408Z,101141.91
2018-10-07T07:55:22.670Z,101142.70
2018-10-07T07:57:53.743Z,101145.75
2018-10-07T08:00:24.719Z,101155.85
2018-10-07T08:02:55.270Z,101154.31
2018-10-07T08:05:26.403Z,101166.88
2018-10-07T08:07:57.367Z,101169.88
2018-10-07T08:10:29.051Z,101172.26
2018-10-07T08:13:00.216Z,101176.30
2018-10-07T08:15:31.095Z,101181.53
2018-10-07T08:18:01.555Z,101181.56
2018-10-07T08:20:31.799Z,101188.09
2018-10-07T08:23:02.094Z,101196.18
2018-10-07T08:25:32.251Z,101195.02
2018-10-07T08:28:02.508Z,101198.38
2018-10-07T08:30:32.995Z,101202.27
2018-10-07T08:33:03.402Z,101204.55
2018-10-07T08:35:33.908Z,101202.64
2018-10-07T08:38:04.278Z,101202.22
2018-10-07T08:40:34.620Z,101204.01
2018-10-07T08:43:05.029Z,101208.33
2018-10-07T08:45:36.139Z,101205.45
2018-10-07T08:48:06.645Z,101214.81
2018-10-07T08:50:37.081Z,101222.88
2018-10-07T08:53:07.575Z,101226.61
2018-10-07T08:55:37.923Z,101222.91
2018-10-07T08:58:08.335Z,101220.48
2018-10-07T09:00:38.802Z,101229.20
2018-10-07T09:03:09.959Z,101233.05
2018-10-07T09:05:40.472Z,101235.18
2018-10-07T09:08:10.857Z,101234.56
2018-10-07T09:10:40.955Z,101239.23
2018-10-07T09:13:10.977Z,101235.41
2018-10-07T09:15:41.079Z,101239.19
2018-10-07T09:18:11.113Z,101235.95
2018-10-07T09:20:41.180Z,101241.92
2018-10-07T09:23:11.520Z,101247.31
2018-10-07T09:25:41.971Z,101247.70
2018-10-07T09:28:12.859Z,101250.01
2018-10-07T09:30:43.341Z,101249.52
2018-10-07T09:33:13.620Z,101259.11
2018-10-07T09:35:44.113Z,101259.23
2018-10-07T09:38:14.920Z,101262.05
2018-10-07T09:40:45.506Z,101263.20
2018-10-07T09:43:15.888Z,101273.25
2018-10-07T09:45:46.271Z,101286.13
2018-10-07T09:48:16.789Z,101281.34
2018-10-07T09:50:47.820Z,101281.56
2018-10-07T09:53:18.546Z,101287.44
2018-10-07T09:55:49.009Z,101294.17
2018-10-07T09:58:19.401Z,101298.16
2018-10-07T10:00:49.954Z,101307.51
2018-10-07T10:03:22.121Z,101312.64
2018-10-07T10:05:52.573Z,101312.13
2018-10-07T10:08:22.829Z,101316.38
2018-10-07T10:10:53.215Z,101325.08
2018-10-07T10:13:23.715Z,101322.23
2018-10-07T10:15:54.033Z,101320.26
2018-10-07T10:18:47.566Z,101327.75
2018-10-07T10:21:45.462Z,101331.73
2018-10-07T10:24:32.519Z,101337.19
2018-10-07T10:27:13.082Z,101330.66
2018-10-07T10:29:50.264Z,101330.78
2018-10-07T10:32:51.847Z,101337.33
2018-10-07T10:35:51.543Z,101331.84
2018-10-07T10:38:33.436Z,101330.18
2018-10-07T10:41:14.820Z,101335.17
2018-10-07T10:43:49.424Z,101325.72
2018-10-07T10:46:41.886Z,101327.44
2018-10-07T10:49:30.507Z,101329.53
2018-10-07T10:52:15.024Z,101328.16
2018-10-07T10:54:59.355Z,101323.09
2018-10-07T10:57:53.657Z,101325.70
2018-10-07T11:00:27.903Z,101328.80
2018-10-07T11:03:18.051Z,101329.19
2018-10-07T11:07:06.274Z,101335.31
2018-10-07T11:09:53.937Z,101341.19
2018-10-07T11:12:37.938Z,101347.21
2018-10-07T11:15:22.847Z,101353.78
2018-10-07T11:18:12.128Z,101348.20
2018-10-07T11:20:57.558Z,101353.36
2018-10-07T11:23:57.277Z,101363.48
2018-10-07T11:26:44.323Z,101360.38
2018-10-07T11:30:29.473Z,101363.34
2018-10-07T11:34:20.148Z,101368.14
2018-10-07T11:38:03.367Z,101359.91
2018-10-07T11:40:51.490Z,101356.91
2018-10-07T11:43:35.639Z,101352.88
2018-10-07T11:46:28.872Z,101355.14
2018-10-07T11:49:09.735Z,101351.01
2018-10-07T11:51:53.378Z,101348.08
2018-10-07T11:54:43.348Z,101354.80
2018-10-07T11:57:13.699Z,101350.11
2018-10-07T11:59:44.043Z,101345.70
2018-10-07T12:02:14.514Z,101340.32
2018-10-07T12:04:44.743Z,101339.55
2018-10-07T12:07:15.229Z,101343.28
2018-10-07T12:09:45.544Z,101335.53
2018-10-07T12:12:16.604Z,101337.33
2018-10-07T12:14:47.279Z,101338.67
2018-10-07T12:17:17.788Z,101343.18
2018-10-07T12:19:48.287Z,101345.87
2018-10-07T12:22:18.637Z,101348.48
2018-10-07T12:24:49.044Z,101347.38
2018-10-07T12:27:19.505Z,101353.98
2018-10-07T12:29:49.917Z,101358.03
2018-10-07T12:32:20.376Z,101361.28
2018-10-07T12:34:50.775Z,101365.61
2018-10-07T12:37:21.057Z,101364.47
2018-10-07T12:39:51.507Z,101363.73
2018-10-07T12:42:22.078Z,101375.13
2018-10-07T12:44:52.575Z,101374.01
2018-10-07T12:47:23.189Z,101370.56
2018-10-07T12:49:53.796Z,101367.94
2018-10-07T12:52:24.262Z,101370.66
2018-10-07T12:54:54.563Z,101369.89
2018-10-07T12:57:25.055Z,101368.78
2018-10-07T12:59:55.564Z,101368.59
2018-10-07T13:02:26.079Z,101369.16
2018-10-07T13:04:56.646Z,101368.02
2018-10-07T13:07:27.250Z,101366.09
2018-10-07T13:09:57.727Z,101359.08
2018-10-07T13:12:28.036Z,101363.66
2018-10-07T13:14:58.458Z,101364.31
2018-10-07T13:17:29.003Z,101369.13
2018-10-07T13:19:59.563Z,101370.19
2018-10-07T13:22:29.936Z,101369.33
2018-10-07T13:25:00.208Z,101369.90
2018-10-07T13:27:30.723Z,101372.13
2018-10-07T13:30:01.046Z,101369.06
2018-10-07T13:32:31.548Z,101369.63
2018-10-07T13:35:02.120Z,101378.98
2018-10-07T13:37:32.730Z,101379.53
2018-10-07T13:40:04.098Z,101383.72
2018-10-07T13:45:35.469Z,101388.12
2018-10-07T13:48:05.939Z,101392.52
2018-10-07T13:50:36.352Z,101394.28
2018-10-07T13:53:06.686Z,101398.68
2018-10-07T13:55:36.990Z,101392.33
2018-10-07T13:58:07.490Z,101391.95
2018-10-07T14:00:37.948Z,101394.95
2018-10-07T14:03:08.592Z,101393.34
2018-10-07T14:05:39.025Z,101388.75
2018-10-07T14:08:09.476Z,101393.80
2018-10-07T14:10:39.948Z,101401.12
2018-10-07T14:13:10.246Z,101407.65
2018-10-07T14:15:40.711Z,101409.14
2018-10-07T14:18:11.133Z,101421.41
2018-10-07T14:20:41.405Z,101417.78
2018-10-07T14:23:11.840Z,101417.30
2018-10-07T14:25:42.244Z,101419.33
2018-10-07T14:28:12.828Z,101420.63
2018-10-07T14:30:43.528Z,101420.83
2018-10-07T14:33:13.928Z,101423.16
2018-10-07T14:35:44.432Z,101429.51
2018-10-07T14:38:14.804Z,101439.55
2018-10-07T14:40:45.140Z,101434.50
2018-10-07T14:43:15.567Z,101438.14
2018-10-07T14:45:46.007Z,101433.00
2018-10-07T14:48:16.428Z,101436.52
2018-10-07T14:50:47.189Z,101445.59
2018-10-07T14:53:17.656Z,101459.05
2018-10-07T14:55:48.040Z,101464.80
2018-10-07T14:58:18.547Z,101468.08
2018-10-07T15:00:48.992Z,101466.73
2018-10-07T15:03:19.379Z,101465.34
2018-10-07T15:05:49.879Z,101462.64
2018-10-07T15:08:20.128Z,101467.91
2018-10-07T15:10:50.508Z,101464.45
2018-10-07T15:13:21.206Z,101472.64
2018-10-07T15:15:51.600Z,101469.28
2018-10-07T15:18:21.976Z,101468.03
2018-10-07T15:20:52.524Z,101474.98
2018-10-07T15:23:22.818Z,101470.22
2018-10-07T15:25:53.320Z,101479.20
2018-10-07T15:28:24.275Z,101468.80
2018-10-07T15:30:54.921Z,101472.03
2018-10-07T15:33:25.391Z,101477.53
2018-10-07T15:35:55.968Z,101476.62
2018-10-07T15:38:26.338Z,101480.28
2018-10-07T15:40:56.599Z,101482.22
2018-10-07T15:43:27.110Z,101480.78
2018-10-07T15:45:57.603Z,101484.30
2018-10-07T15:48:28.080Z,101483.50
2018-10-07T15:50:59.040Z,101485.69
2018-10-07T15:53:29.447Z,101488.31
2018-10-07T15:55:59.823Z,101496.07
2018-10-07T15:58:30.206Z,101489.78
2018-10-07T16:01:00.778Z,101498.61
2018-10-07T16:03:31.361Z,101498.44
2018-10-07T16:06:01.864Z,101502.71
2018-10-07T16:08:32.096Z,101510.45
2018-10-07T16:11:02.481Z,101514.87
2018-10-07T16:13:33.015Z,101517.09
2018-10-07T16:16:03.399Z,101518.13
2018-10-07T16:18:33.666Z,101524.13
2018-10-07T16:21:04.203Z,101520.91
2018-10-07T16:23:34.606Z,101520.13
2018-10-07T16:26:05.030Z,101531.09
2018-10-07T16:28:35.467Z,101535.09
2018-10-07T16:31:05.748Z,101540.94
2018-10-07T16:33:36.146Z,101545.83
2018-10-07T16:36:06.585Z,101549.91
2018-10-07T16:38:36.971Z,101552.61
2018-10-07T16:41:07.956Z,101559.97
2018-10-07T16:43:38.509Z,101564.89
2018-10-07T16:46:27.152Z,101567.09
2018-10-07T16:48:57.660Z,101570.23
2018-10-07T16:51:28.041Z,101572.45
2018-10-07T16:53:58.426Z,101580.13
2018-10-07T16:56:29.648Z,101578.38
2018-10-07T16:59:00.172Z,101581.88
2018-10-07T17:01:30.666Z,101586.44
2018-10-07T17:04:01.470Z,101588.47
2018-10-07T17:06:32.036Z,101597.86
2018-10-07T17:09:02.306Z,101600.82
2018-10-07T17:11:32.709Z,101604.07
2018-10-07T17:14:03.273Z,101609.97
2018-10-07T17:16:33.868Z,101615.67
2018-10-07T17:19:04.231Z,101608.30
2018-10-07T17:21:34.611Z,101609.80
2018-10-07T17:24:05.163Z,101614.38
2018-10-07T17:26:35.843Z,101612.48
2018-10-07T17:29:06.703Z,101608.40
2018-10-07T17:31:37.145Z,101609.46
2018-10-07T17:34:07.761Z,101605.32
2018-10-07T17:36:38.337Z,101616.37
2018-10-07T17:39:11.163Z,101613.31
2018-10-07T17:41:41.844Z,101612.23
2018-10-07T17:44:12.209Z,101609.44
2018-10-07T17:46:42.815Z,101608.09
2018-10-07T17:49:13.365Z,101611.66
2018-10-07T17:51:44.289Z,101601.17
2018-10-07T17:54:14.507Z,101614.37
2018-10-07T17:56:46.009Z,101611.09
2018-10-07T17:59:16.663Z,101619.06
2018-10-07T18:01:47.310Z,101617.86
2018-10-07T18:04:17.683Z,101616.80
2018-10-07T18:06:48.125Z,101617.91
2018-10-07T18:09:18.327Z,101610.61
2018-10-07T18:11:48.769Z,101611.44
2018-10-07T18:14:19.091Z,101614.95
2018-10-07T18:16:49.420Z,101620.58
2018-10-07T18:19:19.714Z,101622.89
2018-10-07T18:21:50.416Z,101628.98
2018-10-07T18:24:21.016Z,101626.54
2018-10-07T18:26:51.274Z,101640.94
2018-10-07T18:29:21.640Z,101643.56
2018-10-07T18:31:52.154Z,101643.62
2018-10-07T18:34:22.823Z,101646.74
2018-10-07T18:36:53.211Z,101647.16
2018-10-07T18:39:23.568Z,101643.74
2018-10-07T18:41:54.040Z,101640.00
2018-10-07T18:44:24.435Z,101650.09
2018-10-07T18:46:54.748Z,101654.09
2018-10-07T18:49:27.224Z,101658.09
2018-10-07T18:51:57.631Z,101657.31
2018-10-07T18:54:28.705Z,101660.39
2018-10-07T18:57:00.005Z,101663.43
2018-10-07T18:59:30.330Z,101660.92
2018-10-07T19:02:00.823Z,101660.17
2018-10-07T19:04:31.338Z,101668.08
2018-10-07T19:07:02.511Z,101666.55
2018-10-07T19:09:32.961Z,101674.38
2018-10-07T19:12:03.973Z,101682.67
2018-10-07T19:14:34.874Z,101678.06
2018-10-07T19:17:05.416Z,101675.94
2018-10-07T19:19:36.132Z,101676.01
2018-10-07T19:22:06.572Z,101685.47
2018-10-07T19:24:36.984Z,101684.36
2018-10-07T19:27:07.708Z,101685.16
2018-10-07T19:29:38.171Z,101687.02
2018-10-07T19:32:08.503Z,101685.68
2018-10-07T19:34:39.004Z,101692.62
2018-10-07T19:37:09.679Z,101692.62
2018-10-07T19:39:39.975Z,101694.89
2018-10-07T19:42:11.286Z,101693.28
2018-10-07T19:44:41.678Z,101698.94
2018-10-07T19:47:11.883Z,101692.65
2018-10-07T19:49:42.433Z,101694.01
2018-10-07T19:52:12.878Z,101693.69
2018-10-07T19:54:43.357Z,101700.66
2018-10-07T19:57:13.760Z,101699.07
2018-10-07T19:59:44.137Z,101700.09
2018-10-07T20:02:14.807Z,101701.50
2018-10-07T20:04:45.292Z,101699.05
2018-10-07T20:07:15.748Z,101698.33
2018-10-07T20:09:46.171Z,101698.49
2018-10-07T20:12:16.424Z,101694.23
2018-10-07T20:14:46.783Z,101695.97
2018-10-07T20:17:17.166Z,101693.51
2018-10-07T20:19:47.486Z,101694.48
2018-10-07T20:22:18.707Z,101694.06
2018-10-07T20:24:49.171Z,101693.70
2018-10-07T20:27:19.627Z,101693.38
2018-10-07T20:29:49.940Z,101695.56
2018-10-07T20:32:20.359Z,101692.67
2018-10-07T20:34:50.670Z,101692.27
2018-10-07T20:37:21.236Z,101693.73
2018-10-07T20:39:51.699Z,101692.40
2018-10-07T20:42:22.289Z,101692.38
2018-10-07T20:44:52.498Z,101688.11
2018-10-07T20:47:22.852Z,101688.55
2018-10-07T20:49:53.164Z,101690.19
2018-10-07T20:52:23.570Z,101690.29
2018-10-07T20:54:53.899Z,101693.69
2018-10-07T20:57:24.269Z,101688.90
2018-10-07T20:59:54.592Z,101692.84
2018-10-07T21:02:25.047Z,101695.42
2018-10-07T21:04:55.543Z,101703.50
2018-10-07T21:07:25.886Z,101695.32
2018-10-07T21:09:56.287Z,101693.27
2018-10-07T21:12:26.653Z,101699.58
2018-10-07T21:14:57.070Z,101692.84
2018-10-07T21:17:27.332Z,101699.75
2018-10-07T21:19:57.837Z,101700.27
2018-10-07T21:22:28.377Z,101696.12
2018-10-07T21:24:58.816Z,101692.77
2018-10-07T21:27:29.346Z,101700.05
2018-10-07T21:29:59.531Z,101698.30
2018-10-07T21:32:29.898Z,101701.75
2018-10-07T21:35:00.296Z,101694.89
2018-10-07T21:37:30.576Z,101698.31
2018-10-07T21:40:01.891Z,101691.03
2018-10-07T21:42:32.140Z,101691.92
2018-10-07T21:45:02.550Z,101696.20
2018-10-07T21:47:32.869Z,101692.47
2018-10-07T21:50:03.213Z,101689.45
2018-10-07T21:52:33.746Z,101684.79
2018-10-07T21:55:03.976Z,101676.73
2018-10-07T21:57:34.316Z,101681.00
2018-10-07T22:00:05.515Z,101678.05
2018-10-07T22:02:35.790Z,101666.44
2018-10-07T22:05:06.444Z,101667.78
2018-10-07T22:07:37.052Z,101664.42
2018-10-07T22:10:07.595Z,101666.61
2018-10-07T22:12:37.953Z,101662.78
2018-10-07T22:15:08.583Z,101666.32
2018-10-07T22:17:38.865Z,101668.08
2018-10-07T22:20:09.341Z,101660.70
2018-10-07T22:22:39.863Z,101658.56
2018-10-07T22:25:10.433Z,101661.63
2018-10-07T22:27:41.023Z,101663.84
2018-10-07T22:30:11.721Z,101656.59
2018-10-07T22:32:42.191Z,101660.06
2018-10-07T22:35:12.491Z,101665.19
2018-10-07T22:37:42.849Z,101671.22
2018-10-07T22:40:13.320Z,101671.66
2018-10-07T22:42:43.802Z,101669.52
2018-10-07T22:45:14.215Z,101669.46
2018-10-07T22:47:44.563Z,101666.50
2018-10-07T22:50:14.952Z,101661.77
2018-10-07T22:52:45.318Z,101660.95
2018-10-07T22:55:15.730Z,101664.82
2018-10-07T22:57:46.088Z,101664.44
2018-10-07T23:00:16.423Z,101666.12
2018-10-07T23:02:46.819Z,101662.73
2018-10-07T23:05:17.344Z,101662.34
2018-10-07T23:07:47.811Z,101660.58
2018-10-07T23:10:18.105Z,101669.12
2018-10-07T23:12:48.595Z,101664.42
2018-10-07T23:15:19.043Z,101665.34
2018-10-07T23:17:49.543Z,101662.38
2018-10-07T23:20:20.163Z,101659.41
2018-10-07T23:22:50.612Z,101661.56
2018-10-07T23:25:20.988Z,101661.45
2018-10-07T23:27:51.247Z,101658.52
2018-10-07T23:30:21.698Z,101654.30
2018-10-07T23:32:52.260Z,101661.19
2018-10-07T23:35:22.618Z,101665.45
2018-10-07T23:37:52.988Z,101664.17
2018-10-07T23:40:23.329Z,101656.89
2018-10-07T23:42:53.749Z,101652.62
2018-10-07T23:45:25.156Z,101658.16
2018-10-07T23:47:55.506Z,101654.37
2018-10-07T23:50:25.928Z,101649.25
2018-10-07T23:52:56.292Z,101656.59
2018-10-07T23:55:26.628Z,101645.86
2018-10-07T23:57:56.917Z,101655.29
